sensor_id;sensor_type;location;lat;lon;timestamp;pressure;altitude;pressure_sealevel;temperature;humidity
82728;BME280;72459;50.110;8.750;2024-03-22T00:02:05;101327.94;;;9.52;57.70
82728;BME280;72459;50.110;8.750;2024-03-22T00:04:30;101324.06;;;9.45;60.80
82728;BME280;72459;50.110;8.750;2024-03-22T00:06:55;101316.91;;;9.43;58.39
82728;BME280;72459;50.110;8.750;2024-03-22T00:09:21;101322.00;;;9.40;59.64
82728;BME280;72459;50.110;8.750;2024-03-22T00:11:46;101316.50;;;9.35;59.79
82728;BME280;72459;50.110;8.750;2024-03-22T00:14:12;101313.06;;;9.36;58.16
82728;BME280;72459;50.110;8.750;2024-03-22T00:16:37;101305.28;;;9.38;58.08
82728;BME280;72459;50.110;8.750;2024-03-22T00:19:03;101304.28;;;9.36;58.37
82728;BME280;72459;50.110;8.750;2024-03-22T00:21:29;101309.59;;;9.37;57.77
82728;BME280;72459;50.110;8.750;2024-03-22T00:23:56;101307.72;;;9.35;58.53
82728;BME280;72459;50.110;8.750;2024-03-22T00:26:21;101300.31;;;9.28;62.42
82728;BME280;72459;50.110;8.750;2024-03-22T00:28:47;101296.63;;;9.24;62.77
82728;BME280;72459;50.110;8.750;2024-03-22T00:31:12;101296.72;;;9.26;60.32
82728;BME280;72459;50.110;8.750;2024-03-22T00:33:38;101286.94;;;9.23;59.68
82728;BME280;72459;50.110;8.750;2024-03-22T00:36:03;101293.19;;;9.25;59.25
82728;BME280;72459;50.110;8.750;2024-03-22T00:38:30;101293.09;;;9.24;59.04
82728;BME280;72459;50.110;8.750;2024-03-22T00:40:56;101284.31;;;9.23;58.84
82728;BME280;72459;50.110;8.750;2024-03-22T00:43:21;101285.06;;;9.20;58.97
82728;BME280;72459;50.110;8.750;2024-03-22T00:45:47;101272.66;;;9.18;61.56
82728;BME280;72459;50.110;8.750;2024-03-22T00:48:13;101276.84;;;9.14;61.78
82728;BME280;72459;50.110;8.750;2024-03-22T00:50:38;101275.03;;;9.13;61.37
82728;BME280;72459;50.110;8.750;2024-03-22T00:53:04;101278.66;;;9.15;59.53
82728;BME280;72459;50.110;8.750;2024-03-22T00:55:31;101271.94;;;9.20;59.00
82728;BME280;72459;50.110;8.750;2024-03-22T00:57:56;101262.09;;;9.16;59.87
82728;BME280;72459;50.110;8.750;2024-03-22T01:00:22;101267.44;;;9.18;59.73
82728;BME280;72459;50.110;8.750;2024-03-22T01:02:47;101260.72;;;9.23;58.47
82728;BME280;72459;50.110;8.750;2024-03-22T01:05:13;101256.47;;;9.25;58.92
82728;BME280;72459;50.110;8.750;2024-03-22T01:07:39;101256.22;;;9.20;59.23
82728;BME280;72459;50.110;8.750;2024-03-22T01:10:05;101251.59;;;9.16;58.72
82728;BME280;72459;50.110;8.750;2024-03-22T01:12:30;101248.63;;;9.10;62.23
82728;BME280;72459;50.110;8.750;2024-03-22T01:14:56;101247.53;;;9.07;60.64
82728;BME280;72459;50.110;8.750;2024-03-22T01:17:21;101244.00;;;9.06;59.67
82728;BME280;72459;50.110;8.750;2024-03-22T01:19:47;101238.59;;;9.03;59.36
82728;BME280;72459;50.110;8.750;2024-03-22T01:22:12;101247.28;;;9.02;58.91
82728;BME280;72459;50.110;8.750;2024-03-22T01:24:37;101248.09;;;9.01;59.18
82728;BME280;72459;50.110;8.750;2024-03-22T01:27:03;101243.56;;;8.99;61.50
82728;BME280;72459;50.110;8.750;2024-03-22T01:29:28;101246.75;;;8.93;62.06
82728;BME280;72459;50.110;8.750;2024-03-22T01:31:57;101242.16;;;8.89;62.41
82728;BME280;72459;50.110;8.750;2024-03-22T01:34:22;101237.09;;;8.92;59.79
82728;BME280;72459;50.110;8.750;2024-03-22T01:36:48;101238.72;;;8.90;63.25
82728;BME280;72459;50.110;8.750;2024-03-22T01:39:13;101242.97;;;8.88;63.22
82728;BME280;72459;50.110;8.750;2024-03-22T01:41:40;101241.81;;;8.83;61.57
82728;BME280;72459;50.110;8.750;2024-03-22T01:44:05;101245.59;;;8.88;59.92
82728;BME280;72459;50.110;8.750;2024-03-22T01:46:30;101245.59;;;8.88;61.81
82728;BME280;72459;50.110;8.750;2024-03-22T01:48:56;101242.69;;;8.83;61.35
82728;BME280;72459;50.110;8.750;2024-03-22T01:51:21;101237.56;;;8.85;60.16
82728;BME280;72459;50.110;8.750;2024-03-22T01:53:47;101242.88;;;8.86;59.86
82728;BME280;72459;50.110;8.750;2024-03-22T01:56:12;101233.03;;;8.82;60.46
82728;BME280;72459;50.110;8.750;2024-03-22T01:58:39;101236.22;;;8.77;60.76
82728;BME280;72459;50.110;8.750;2024-03-22T02:01:05;101230.63;;;8.71;60.58
82728;BME280;72459;50.110;8.750;2024-03-22T02:03:31;101224.22;;;8.66;60.92
82728;BME280;72459;50.110;8.750;2024-03-22T02:05:56;101227.38;;;8.60;60.42
82728;BME280;72459;50.110;8.750;2024-03-22T02:08:21;101214.00;;;8.55;60.37
82728;BME280;72459;50.110;8.750;2024-03-22T02:10:47;101220.88;;;8.53;59.86
82728;BME280;72459;50.110;8.750;2024-03-22T02:13:12;101215.47;;;8.50;60.13
82728;BME280;72459;50.110;8.750;2024-03-22T02:15:37;101208.41;;;8.49;60.91
82728;BME280;72459;50.110;8.750;2024-03-22T02:18:03;101209.97;;;8.46;60.56
82728;BME280;72459;50.110;8.750;2024-03-22T02:20:29;101201.72;;;8.40;60.34
82728;BME280;72459;50.110;8.750;2024-03-22T02:22:54;101190.16;;;8.36;60.00
82728;BME280;72459;50.110;8.750;2024-03-22T02:25:19;101193.19;;;8.29;61.22
82728;BME280;72459;50.110;8.750;2024-03-22T02:27:45;101189.59;;;8.27;62.29
82728;BME280;72459;50.110;8.750;2024-03-22T02:30:10;101191.03;;;8.22;63.90
82728;BME280;72459;50.110;8.750;2024-03-22T02:32:36;101185.78;;;8.22;60.72
82728;BME280;72459;50.110;8.750;2024-03-22T02:35:02;101188.13;;;8.17;64.50
82728;BME280;72459;50.110;8.750;2024-03-22T02:37:28;101188.13;;;8.17;61.77
82728;BME280;72459;50.110;8.750;2024-03-22T02:39:53;101180.19;;;8.16;61.17
82728;BME280;72459;50.110;8.750;2024-03-22T02:42:18;101186.16;;;8.13;61.82
82728;BME280;72459;50.110;8.750;2024-03-22T02:44:44;101182.53;;;8.11;61.06
82728;BME280;72459;50.110;8.750;2024-03-22T02:47:10;101173.16;;;8.15;61.31
82728;BME280;72459;50.110;8.750;2024-03-22T02:49:36;101172.97;;;8.12;61.07
82728;BME280;72459;50.110;8.750;2024-03-22T02:52:01;101176.13;;;8.06;61.88
82728;BME280;72459;50.110;8.750;2024-03-22T02:54:26;101179.09;;;7.98;60.83
82728;BME280;72459;50.110;8.750;2024-03-22T02:56:52;101181.97;;;7.87;61.95
82728;BME280;72459;50.110;8.750;2024-03-22T02:59:17;101180.81;;;7.82;62.26
82728;BME280;72459;50.110;8.750;2024-03-22T03:01:43;101177.38;;;7.83;61.13
82728;BME280;72459;50.110;8.750;2024-03-22T03:04:08;101182.78;;;7.86;61.08
82728;BME280;72459;50.110;8.750;2024-03-22T03:06:33;101172.31;;;7.86;61.33
82728;BME280;72459;50.110;8.750;2024-03-22T03:09:00;101171.34;;;7.84;61.20
82728;BME280;72459;50.110;8.750;2024-03-22T03:11:25;101168.53;;;7.81;60.87
82728;BME280;72459;50.110;8.750;2024-03-22T03:13:51;101169.13;;;7.77;60.74
82728;BME280;72459;50.110;8.750;2024-03-22T03:16:16;101168.22;;;7.77;60.80
82728;BME280;72459;50.110;8.750;2024-03-22T03:18:42;101167.13;;;7.73;60.97
82728;BME280;72459;50.110;8.750;2024-03-22T03:21:07;101167.84;;;7.71;61.51
82728;BME280;72459;50.110;8.750;2024-03-22T03:23:33;101159.91;;;7.69;61.17
82728;BME280;72459;50.110;8.750;2024-03-22T03:25:58;101162.53;;;7.69;61.43
82728;BME280;72459;50.110;8.750;2024-03-22T03:28:23;101157.28;;;7.69;60.79
82728;BME280;72459;50.110;8.750;2024-03-22T03:30:51;101163.72;;;7.74;61.54
82728;BME280;72459;50.110;8.750;2024-03-22T03:33:17;101160.19;;;7.74;62.20
82728;BME280;72459;50.110;8.750;2024-03-22T03:35:46;101151.44;;;7.73;61.17
82728;BME280;72459;50.110;8.750;2024-03-22T03:38:11;101156.84;;;7.76;61.26
82728;BME280;72459;50.110;8.750;2024-03-22T03:40:36;101141.34;;;7.79;60.29
82728;BME280;72459;50.110;8.750;2024-03-22T03:43:02;101140.66;;;7.82;60.39
82728;BME280;72459;50.110;8.750;2024-03-22T03:45:27;101140.75;;;7.83;61.30
82728;BME280;72459;50.110;8.750;2024-03-22T03:47:52;101134.59;;;7.83;61.47
82728;BME280;72459;50.110;8.750;2024-03-22T03:50:18;101138.84;;;7.81;61.51
82728;BME280;72459;50.110;8.750;2024-03-22T03:52:43;101139.63;;;7.80;61.61
82728;BME280;72459;50.110;8.750;2024-03-22T03:55:08;101137.81;;;7.79;61.52
82728;BME280;72459;50.110;8.750;2024-03-22T03:57:34;101131.59;;;7.77;61.76
82728;BME280;72459;50.110;8.750;2024-03-22T04:00:01;101135.91;;;7.76;62.03
82728;BME280;72459;50.110;8.750;2024-03-22T04:02:27;101130.50;;;7.73;61.37
82728;BME280;72459;50.110;8.750;2024-03-22T04:04:52;101134.19;;;7.62;65.13
82728;BME280;72459;50.110;8.750;2024-03-22T04:07:19;101129.59;;;7.58;65.97
82728;BME280;72459;50.110;8.750;2024-03-22T04:09:45;101126.16;;;7.59;65.96
82728;BME280;72459;50.110;8.750;2024-03-22T04:12:10;101120.22;;;7.61;63.03
82728;BME280;72459;50.110;8.750;2024-03-22T04:14:36;101116.69;;;7.61;64.50
82728;BME280;72459;50.110;8.750;2024-03-22T04:17:01;101113.28;;;7.62;64.29
82728;BME280;72459;50.110;8.750;2024-03-22T04:19:26;101108.66;;;7.58;65.32
82728;BME280;72459;50.110;8.750;2024-03-22T04:21:51;101109.03;;;7.64;62.51
82728;BME280;72459;50.110;8.750;2024-03-22T04:24:17;101109.22;;;7.67;65.98
82728;BME280;72459;50.110;8.750;2024-03-22T04:26:42;101102.81;;;7.62;64.32
82728;BME280;72459;50.110;8.750;2024-03-22T04:29:08;101108.22;;;7.65;68.04
82728;BME280;72459;50.110;8.750;2024-03-22T04:31:34;101102.25;;;7.68;63.45
82728;BME280;72459;50.110;8.750;2024-03-22T04:33:59;101101.72;;;7.73;61.76
82728;BME280;72459;50.110;8.750;2024-03-22T04:36:25;101100.19;;;7.77;61.43
82728;BME280;72459;50.110;8.750;2024-03-22T04:38:50;101097.88;;;7.81;61.61
82728;BME280;72459;50.110;8.750;2024-03-22T04:41:15;101107.72;;;7.85;62.04
82728;BME280;72459;50.110;8.750;2024-03-22T04:43:41;101112.13;;;7.86;61.02
82728;BME280;72459;50.110;8.750;2024-03-22T04:46:06;101108.88;;;7.90;61.48
82728;BME280;72459;50.110;8.750;2024-03-22T04:48:31;101108.34;;;7.96;61.12
82728;BME280;72459;50.110;8.750;2024-03-22T04:50:57;101106.00;;;8.01;61.32
82728;BME280;72459;50.110;8.750;2024-03-22T04:53:22;101101.84;;;8.04;61.91
82728;BME280;72459;50.110;8.750;2024-03-22T04:55:48;101112.41;;;8.06;61.84
82728;BME280;72459;50.110;8.750;2024-03-22T04:58:14;101107.97;;;8.05;61.73
82728;BME280;72459;50.110;8.750;2024-03-22T05:00:41;101111.31;;;8.02;61.88
82728;BME280;72459;50.110;8.750;2024-03-22T05:03:06;101112.03;;;8.00;61.38
82728;BME280;72459;50.110;8.750;2024-03-22T05:05:31;101110.25;;;7.99;61.47
82728;BME280;72459;50.110;8.750;2024-03-22T05:07:57;101109.25;;;7.97;61.60
82728;BME280;72459;50.110;8.750;2024-03-22T05:10:22;101111.69;;;7.93;62.13
82728;BME280;72459;50.110;8.750;2024-03-22T05:12:49;101103.84;;;7.93;62.14
82728;BME280;72459;50.110;8.750;2024-03-22T05:15:15;101111.88;;;7.97;61.83
82728;BME280;72459;50.110;8.750;2024-03-22T05:17:41;101111.97;;;7.98;61.31
82728;BME280;72459;50.110;8.750;2024-03-22T05:20:08;101106.91;;;8.01;61.44
82728;BME280;72459;50.110;8.750;2024-03-22T05:22:37;101107.25;;;8.07;61.17
82728;BME280;72459;50.110;8.750;2024-03-22T05:25:02;101104.91;;;8.12;61.32
82728;BME280;72459;50.110;8.750;2024-03-22T05:27:28;101107.78;;;8.16;62.06
82728;BME280;72459;50.110;8.750;2024-03-22T05:29:53;101101.00;;;8.20;66.41
82728;BME280;72459;50.110;8.750;2024-03-22T05:32:19;101110.84;;;8.24;65.99
82728;BME280;72459;50.110;8.750;2024-03-22T05:34:44;101108.13;;;8.22;67.70
82728;BME280;72459;50.110;8.750;2024-03-22T05:37:09;101114.63;;;8.29;62.32
82728;BME280;72459;50.110;8.750;2024-03-22T05:39:36;101116.44;;;8.30;66.29
82728;BME280;72459;50.110;8.750;2024-03-22T05:42:01;101108.31;;;8.40;62.08
82728;BME280;72459;50.110;8.750;2024-03-22T05:44:26;101103.25;;;8.43;62.38
82728;BME280;72459;50.110;8.750;2024-03-22T05:46:52;101101.53;;;8.44;64.54
82728;BME280;72459;50.110;8.750;2024-03-22T05:49:19;101098.91;;;8.44;66.28
82728;BME280;72459;50.110;8.750;2024-03-22T05:51:45;101096.69;;;8.50;63.44
82728;BME280;72459;50.110;8.750;2024-03-22T05:54:11;101090.63;;;8.51;65.24
82728;BME280;72459;50.110;8.750;2024-03-22T05:56:36;101087.44;;;8.56;62.74
82728;BME280;72459;50.110;8.750;2024-03-22T05:59:01;101090.50;;;8.64;61.63
82728;BME280;72459;50.110;8.750;2024-03-22T06:01:27;101081.91;;;8.67;62.17
82728;BME280;72459;50.110;8.750;2024-03-22T06:03:52;101086.50;;;8.71;61.64
82728;BME280;72459;50.110;8.750;2024-03-22T06:06:17;101074.53;;;8.76;64.07
82728;BME280;72459;50.110;8.750;2024-03-22T06:08:44;101071.91;;;8.76;62.46
82728;BME280;72459;50.110;8.750;2024-03-22T06:11:12;101072.50;;;8.86;61.67
82728;BME280;72459;50.110;8.750;2024-03-22T06:13:38;101065.31;;;8.99;62.52
82728;BME280;72459;50.110;8.750;2024-03-22T06:16:04;101074.75;;;9.11;64.77
82728;BME280;72459;50.110;8.750;2024-03-22T06:18:29;101065.97;;;9.27;62.37
82728;BME280;72459;50.110;8.750;2024-03-22T06:20:55;101063.50;;;9.46;61.54
82728;BME280;72459;50.110;8.750;2024-03-22T06:23:23;101061.97;;;9.68;60.83
82728;BME280;72459;50.110;8.750;2024-03-22T06:25:55;101060.97;;;9.82;62.47
82728;BME280;72459;50.110;8.750;2024-03-22T06:28:21;101058.13;;;9.95;61.85
82728;BME280;72459;50.110;8.750;2024-03-22T06:30:47;101056.03;;;10.06;62.14
82728;BME280;72459;50.110;8.750;2024-03-22T06:33:12;101059.94;;;10.14;62.04
82728;BME280;72459;50.110;8.750;2024-03-22T06:35:38;101053.59;;;10.27;60.92
82728;BME280;72459;50.110;8.750;2024-03-22T06:38:03;101049.84;;;10.39;60.10
82728;BME280;72459;50.110;8.750;2024-03-22T06:40:29;101049.34;;;10.46;59.96
82728;BME280;72459;50.110;8.750;2024-03-22T06:42:55;101047.81;;;10.52;62.01
82728;BME280;72459;50.110;8.750;2024-03-22T06:45:20;101047.38;;;10.42;62.17
82728;BME280;72459;50.110;8.750;2024-03-22T06:47:46;101038.75;;;10.45;62.48
82728;BME280;72459;50.110;8.750;2024-03-22T06:50:11;101038.28;;;10.54;61.21
82728;BME280;72459;50.110;8.750;2024-03-22T06:52:37;101039.53;;;10.62;61.55
82728;BME280;72459;50.110;8.750;2024-03-22T06:55:03;101036.78;;;10.78;61.05
82728;BME280;72459;50.110;8.750;2024-03-22T06:57:28;101043.44;;;10.89;60.96
82728;BME280;72459;50.110;8.750;2024-03-22T06:59:54;101049.53;;;10.88;62.56
82728;BME280;72459;50.110;8.750;2024-03-22T07:02:19;101038.25;;;10.91;61.00
82728;BME280;72459;50.110;8.750;2024-03-22T07:04:45;101036.19;;;11.03;60.20
82728;BME280;72459;50.110;8.750;2024-03-22T07:07:12;101029.50;;;11.09;60.69
82728;BME280;72459;50.110;8.750;2024-03-22T07:09:38;101027.06;;;11.14;61.56
82728;BME280;72459;50.110;8.750;2024-03-22T07:12:04;101033.50;;;11.21;60.80
82728;BME280;72459;50.110;8.750;2024-03-22T07:14:31;101022.41;;;11.28;59.99
82728;BME280;72459;50.110;8.750;2024-03-22T07:16:56;101028.38;;;11.24;60.80
82728;BME280;72459;50.110;8.750;2024-03-22T07:19:22;101023.13;;;11.24;61.97
82728;BME280;72459;50.110;8.750;2024-03-22T07:21:47;101020.75;;;11.30;60.65
82728;BME280;72459;50.110;8.750;2024-03-22T07:24:13;101021.72;;;11.32;62.03
82728;BME280;72459;50.110;8.750;2024-03-22T07:26:39;101025.69;;;11.22;61.84
82728;BME280;72459;50.110;8.750;2024-03-22T07:29:05;101022.72;;;11.15;62.25
82728;BME280;72459;50.110;8.750;2024-03-22T07:31:31;101010.03;;;11.25;61.08
82728;BME280;72459;50.110;8.750;2024-03-22T07:33:56;101016.28;;;11.08;63.04
82728;BME280;72459;50.110;8.750;2024-03-22T07:36:22;101011.50;;;11.19;60.93
82728;BME280;72459;50.110;8.750;2024-03-22T07:38:49;101010.53;;;11.17;62.86
82728;BME280;72459;50.110;8.750;2024-03-22T07:41:15;101007.19;;;11.21;61.49
82728;BME280;72459;50.110;8.750;2024-03-22T07:43:40;101015.66;;;11.14;62.59
82728;BME280;72459;50.110;8.750;2024-03-22T07:46:06;101011.28;;;11.14;61.36
82728;BME280;72459;50.110;8.750;2024-03-22T07:48:31;101005.94;;;11.32;60.37
82728;BME280;72459;50.110;8.750;2024-03-22T07:51:00;101005.09;;;11.33;62.66
82728;BME280;72459;50.110;8.750;2024-03-22T07:53:26;101010.28;;;11.31;62.32
82728;BME280;72459;50.110;8.750;2024-03-22T07:55:51;101010.03;;;11.25;62.80
82728;BME280;72459;50.110;8.750;2024-03-22T07:58:16;101011.97;;;11.29;61.13
82728;BME280;72459;50.110;8.750;2024-03-22T08:00:42;101013.00;;;11.33;62.69
82728;BME280;72459;50.110;8.750;2024-03-22T08:03:08;101008.53;;;11.51;61.09
82728;BME280;72459;50.110;8.750;2024-03-22T08:05:39;101010.72;;;11.61;61.46
82728;BME280;72459;50.110;8.750;2024-03-22T08:08:04;101012.69;;;11.67;61.07
82728;BME280;72459;50.110;8.750;2024-03-22T08:10:30;101002.53;;;11.74;62.86
82728;BME280;72459;50.110;8.750;2024-03-22T08:12:55;101001.28;;;11.86;61.07
82728;BME280;72459;50.110;8.750;2024-03-22T08:15:21;100998.81;;;11.90;61.00
82728;BME280;72459;50.110;8.750;2024-03-22T08:17:46;100992.19;;;12.00;60.55
82728;BME280;72459;50.110;8.750;2024-03-22T08:20:11;100988.66;;;11.99;61.67
82728;BME280;72459;50.110;8.750;2024-03-22T08:22:37;100989.81;;;12.06;60.26
82728;BME280;72459;50.110;8.750;2024-03-22T08:25:02;100986.94;;;12.00;61.83
82728;BME280;72459;50.110;8.750;2024-03-22T08:27:29;100977.09;;;11.96;61.14
82728;BME280;72459;50.110;8.750;2024-03-22T08:29:54;100973.56;;;11.95;62.44
82728;BME280;72459;50.110;8.750;2024-03-22T08:32:21;100965.97;;;12.03;61.59
82728;BME280;72459;50.110;8.750;2024-03-22T08:34:46;100962.75;;;12.10;61.54
82728;BME280;72459;50.110;8.750;2024-03-22T08:37:13;100967.28;;;12.14;62.12
82728;BME280;72459;50.110;8.750;2024-03-22T08:39:38;100965.69;;;12.18;60.99
82728;BME280;72459;50.110;8.750;2024-03-22T08:42:04;100972.75;;;12.19;61.79
82728;BME280;72459;50.110;8.750;2024-03-22T08:44:30;100969.69;;;12.30;62.04
82728;BME280;72459;50.110;8.750;2024-03-22T08:46:56;100974.84;;;12.27;61.41
82728;BME280;72459;50.110;8.750;2024-03-22T08:49:22;100969.06;;;12.36;62.10
82728;BME280;72459;50.110;8.750;2024-03-22T08:51:48;100960.44;;;12.40;61.51
82728;BME280;72459;50.110;8.750;2024-03-22T08:54:14;100950.59;;;12.58;62.11
82728;BME280;72459;50.110;8.750;2024-03-22T08:56:39;100950.53;;;12.81;61.29
82728;BME280;72459;50.110;8.750;2024-03-22T08:59:05;100947.91;;;13.05;61.25
82728;BME280;72459;50.110;8.750;2024-03-22T09:01:30;100942.75;;;13.08;60.77
82728;BME280;72459;50.110;8.750;2024-03-22T09:03:57;100941.91;;;13.32;60.12
82728;BME280;72459;50.110;8.750;2024-03-22T09:06:23;100932.34;;;13.36;60.40
82728;BME280;72459;50.110;8.750;2024-03-22T09:08:48;100928.53;;;13.53;59.44
82728;BME280;72459;50.110;8.750;2024-03-22T09:11:13;100922.31;;;14.05;59.80
82728;BME280;72459;50.110;8.750;2024-03-22T09:13:39;100922.56;;;14.41;58.73
82728;BME280;72459;50.110;8.750;2024-03-22T09:16:04;100920.34;;;14.85;58.68
82728;BME280;72459;50.110;8.750;2024-03-22T09:18:30;100921.41;;;15.23;58.94
82728;BME280;72459;50.110;8.750;2024-03-22T09:20:56;100919.44;;;15.49;56.87
82728;BME280;72459;50.110;8.750;2024-03-22T09:23:22;100914.44;;;15.60;58.15
82728;BME280;72459;50.110;8.750;2024-03-22T09:25:47;100904.09;;;16.06;57.82
82728;BME280;72459;50.110;8.750;2024-03-22T09:28:13;100907.53;;;16.41;57.09
82728;BME280;72459;50.110;8.750;2024-03-22T09:30:40;100899.09;;;16.61;56.88
82728;BME280;72459;50.110;8.750;2024-03-22T09:33:06;100895.91;;;16.75;57.53
82728;BME280;72459;50.110;8.750;2024-03-22T09:35:34;100897.16;;;16.13;54.36
82728;BME280;72459;50.110;8.750;2024-03-22T09:38:00;100885.91;;;16.23;57.61
82728;BME280;72459;50.110;8.750;2024-03-22T09:40:26;100890.66;;;16.38;56.63
82728;BME280;72459;50.110;8.750;2024-03-22T09:42:52;100885.78;;;16.58;56.99
82728;BME280;72459;50.110;8.750;2024-03-22T09:45:19;100886.09;;;16.71;57.47
82728;BME280;72459;50.110;8.750;2024-03-22T09:47:45;100889.66;;;16.73;57.00
82728;BME280;72459;50.110;8.750;2024-03-22T09:50:14;100883.94;;;16.55;54.39
82728;BME280;72459;50.110;8.750;2024-03-22T09:52:41;100882.03;;;16.09;57.06
82728;BME280;72459;50.110;8.750;2024-03-22T09:55:08;100880.91;;;15.98;55.81
82728;BME280;72459;50.110;8.750;2024-03-22T09:57:38;100867.53;;;16.31;57.13
82728;BME280;72459;50.110;8.750;2024-03-22T10:00:08;100865.97;;;16.40;54.88
82728;BME280;72459;50.110;8.750;2024-03-22T10:02:34;100867.03;;;16.50;56.93
82728;BME280;72459;50.110;8.750;2024-03-22T10:05:00;100868.31;;;16.67;55.24
82728;BME280;72459;50.110;8.750;2024-03-22T10:07:27;100863.50;;;16.92;54.71
82728;BME280;72459;50.110;8.750;2024-03-22T10:09:53;100861.84;;;16.56;54.59
82728;BME280;72459;50.110;8.750;2024-03-22T10:12:18;100845.53;;;16.78;56.19
82728;BME280;72459;50.110;8.750;2024-03-22T10:14:43;100852.28;;;17.08;56.09
82728;BME280;72459;50.110;8.750;2024-03-22T10:17:09;100848.31;;;16.86;52.15
82728;BME280;72459;50.110;8.750;2024-03-22T10:19:35;100846.50;;;16.84;53.32
82728;BME280;72459;50.110;8.750;2024-03-22T10:22:01;100832.81;;;17.07;53.69
82728;BME280;72459;50.110;8.750;2024-03-22T10:24:28;100827.50;;;17.07;54.32
82728;BME280;72459;50.110;8.750;2024-03-22T10:26:53;100826.63;;;17.08;52.36
82728;BME280;72459;50.110;8.750;2024-03-22T10:29:19;100821.53;;;17.22;54.59
82728;BME280;72459;50.110;8.750;2024-03-22T10:31:45;100820.88;;;17.35;52.43
82728;BME280;72459;50.110;8.750;2024-03-22T10:34:13;100815.13;;;17.09;52.47
82728;BME280;72459;50.110;8.750;2024-03-22T10:36:39;100817.53;;;17.47;54.71
82728;BME280;72459;50.110;8.750;2024-03-22T10:39:05;100809.50;;;18.00;54.07
82728;BME280;72459;50.110;8.750;2024-03-22T10:41:32;100810.06;;;18.43;54.07
82728;BME280;72459;50.110;8.750;2024-03-22T10:43:57;100805.19;;;18.82;53.13
82728;BME280;72459;50.110;8.750;2024-03-22T10:46:29;100807.47;;;18.50;50.64
82728;BME280;72459;50.110;8.750;2024-03-22T10:48:59;100788.75;;;18.41;53.42
82728;BME280;72459;50.110;8.750;2024-03-22T10:51:29;100787.81;;;18.37;52.36
82728;BME280;72459;50.110;8.750;2024-03-22T10:53:56;100788.03;;;18.57;52.02
82728;BME280;72459;50.110;8.750;2024-03-22T10:56:23;100779.56;;;18.92;52.60
82728;BME280;72459;50.110;8.750;2024-03-22T10:58:49;100772.25;;;18.73;52.55
82728;BME280;72459;50.110;8.750;2024-03-22T11:01:23;100772.56;;;19.03;53.32
82728;BME280;72459;50.110;8.750;2024-03-22T11:03:49;100765.53;;;18.29;51.57
82728;BME280;72459;50.110;8.750;2024-03-22T11:06:18;100762.19;;;18.47;53.21
82728;BME280;72459;50.110;8.750;2024-03-22T11:08:44;100757.13;;;18.68;52.15
82728;BME280;72459;50.110;8.750;2024-03-22T11:11:14;100759.03;;;18.82;53.05
82728;BME280;72459;50.110;8.750;2024-03-22T11:13:43;100751.66;;;18.59;50.80
82728;BME280;72459;50.110;8.750;2024-03-22T11:16:09;100753.66;;;18.77;49.86
82728;BME280;72459;50.110;8.750;2024-03-22T11:18:35;100752.06;;;18.94;50.56
82728;BME280;72459;50.110;8.750;2024-03-22T11:21:00;100751.13;;;18.91;50.24
82728;BME280;72459;50.110;8.750;2024-03-22T11:23:26;100736.41;;;19.39;51.56
82728;BME280;72459;50.110;8.750;2024-03-22T11:25:51;100729.78;;;20.20;51.36
82728;BME280;72459;50.110;8.750;2024-03-22T11:28:17;100724.50;;;20.40;49.55
82728;BME280;72459;50.110;8.750;2024-03-22T11:30:43;100713.78;;;20.32;49.46
82728;BME280;72459;50.110;8.750;2024-03-22T11:33:10;100702.19;;;20.19;48.49
82728;BME280;72459;50.110;8.750;2024-03-22T11:35:36;100700.50;;;20.53;49.97
82728;BME280;72459;50.110;8.750;2024-03-22T11:38:01;100683.63;;;21.00;49.30
82728;BME280;72459;50.110;8.750;2024-03-22T11:40:29;100687.19;;;20.96;48.46
82728;BME280;72459;50.110;8.750;2024-03-22T11:42:57;100693.44;;;20.91;49.24
82728;BME280;72459;50.110;8.750;2024-03-22T11:45:23;100686.19;;;20.21;50.69
82728;BME280;72459;50.110;8.750;2024-03-22T11:47:49;100685.19;;;19.94;48.93
82728;BME280;72459;50.110;8.750;2024-03-22T11:50:15;100687.53;;;19.40;47.19
82728;BME280;72459;50.110;8.750;2024-03-22T11:52:43;100683.06;;;19.37;51.44
82728;BME280;72459;50.110;8.750;2024-03-22T11:55:10;100682.16;;;19.30;50.51
82728;BME280;72459;50.110;8.750;2024-03-22T11:57:36;100677.78;;;19.43;51.60
82728;BME280;72459;50.110;8.750;2024-03-22T12:00:03;100672.44;;;19.40;51.30
82728;BME280;72459;50.110;8.750;2024-03-22T12:02:35;100667.84;;;19.16;49.99
82728;BME280;72459;50.110;8.750;2024-03-22T12:05:01;100671.94;;;18.70;50.60
82728;BME280;72459;50.110;8.750;2024-03-22T12:07:26;100660.66;;;19.03;51.66
82728;BME280;72459;50.110;8.750;2024-03-22T12:09:52;100657.25;;;19.28;51.40
82728;BME280;72459;50.110;8.750;2024-03-22T12:12:21;100648.41;;;19.36;51.95
82728;BME280;72459;50.110;8.750;2024-03-22T12:14:47;100651.91;;;19.25;49.75
82728;BME280;72459;50.110;8.750;2024-03-22T12:17:15;100646.63;;;19.31;49.49
82728;BME280;72459;50.110;8.750;2024-03-22T12:19:40;100633.47;;;19.56;49.14
82728;BME280;72459;50.110;8.750;2024-03-22T12:22:06;100637.72;;;19.29;50.16
82728;BME280;72459;50.110;8.750;2024-03-22T12:24:32;100630.03;;;19.90;49.87
82728;BME280;72459;50.110;8.750;2024-03-22T12:26:57;100621.06;;;19.66;48.42
82728;BME280;72459;50.110;8.750;2024-03-22T12:29:23;100621.09;;;19.72;48.12
82728;BME280;72459;50.110;8.750;2024-03-22T12:31:55;100615.75;;;19.73;50.72
82728;BME280;72459;50.110;8.750;2024-03-22T12:34:21;100616.66;;;19.77;51.24
82728;BME280;72459;50.110;8.750;2024-03-22T12:36:47;100621.16;;;19.98;50.98
82728;BME280;72459;50.110;8.750;2024-03-22T12:39:12;100615.84;;;20.04;50.95
82728;BME280;72459;50.110;8.750;2024-03-22T12:41:37;100610.44;;;19.78;50.51
82728;BME280;72459;50.110;8.750;2024-03-22T12:44:03;100620.88;;;19.35;50.83
82728;BME280;72459;50.110;8.750;2024-03-22T12:46:29;100613.78;;;19.42;51.03
82728;BME280;72459;50.110;8.750;2024-03-22T12:48:54;100612.91;;;19.43;51.64